createdAt,value
2022-09-26T00:01:39.008Z,1.80
2022-09-26T00:04:23.639Z,1.67
2022-09-26T00:06:52.909Z,1.70
2022-09-26T00:09:22.241Z,1.98
2022-09-26T00:11:50.524Z,1.90
2022-09-26T00:14:21.959Z,1.90
2022-09-26T00:16:50.249Z,1.80
2022-09-26T00:19:18.377Z,1.77
2022-09-26T00:21:46.423Z,1.83
2022-09-26T00:24:14.590Z,1.67
2022-09-26T00:26:42.452Z,1.70
2022-09-26T00:29:12.864Z,2.00
2022-09-26T00:31:44.383Z,1.80
2022-09-26T00:34:17.775Z,1.63
2022-09-26T00:36:45.690Z,2.10
2022-09-26T00:39:15.662Z,1.88
2022-09-26T00:41:44.079Z,1.90
2022-09-26T00:44:35.655Z,1.63
2022-09-26T00:47:03.402Z,1.35
2022-09-26T00:49:35.429Z,1.80
2022-09-26T00:52:23.724Z,1.52
2022-09-26T00:54:53.622Z,1.50
2022-09-26T00:57:36.294Z,1.40
2022-09-26T01:00:09.482Z,1.52
2022-09-26T01:02:37.856Z,1.42
2022-09-26T01:05:06.606Z,1.75
2022-09-26T01:07:34.731Z,1.60
2022-09-26T01:10:05.455Z,1.50
2022-09-26T01:12:35.642Z,1.23
2022-09-26T01:15:04.397Z,1.70
2022-09-26T01:17:32.348Z,1.67
2022-09-26T01:20:29.423Z,1.63
2022-09-26T01:23:12.009Z,1.70
2022-09-26T01:25:54.862Z,1.90
2022-09-26T01:28:31.449Z,1.60
2022-09-26T01:31:14.491Z,1.45
2022-09-26T01:33:42.364Z,1.40
2022-09-26T01:36:31.852Z,1.73
2022-09-26T01:39:11.692Z,1.45
2022-09-26T01:41:48.875Z,1.80
2022-09-26T01:44:33.841Z,1.45
2022-09-26T01:47:17.852Z,1.45
2022-09-26T01:50:00.771Z,1.20
2022-09-26T01:53:04.638Z,1.83
2022-09-26T01:55:44.208Z,1.92
2022-09-26T01:58:36.329Z,1.75
2022-09-26T02:01:09.334Z,1.63
2022-09-26T02:03:40.376Z,1.77
2022-09-26T02:06:15.727Z,1.67
2022-09-26T02:08:53.245Z,1.50
2022-09-26T02:11:22.609Z,1.50
2022-09-26T02:13:53.040Z,1.80
2022-09-26T02:16:32.983Z,1.65
2022-09-26T02:19:07.486Z,1.40
2022-09-26T02:21:35.360Z,1.80
2022-09-26T02:24:03.460Z,1.35
2022-09-26T02:26:33.884Z,1.50
2022-09-26T02:29:02.395Z,1.38
2022-09-26T02:31:35.707Z,1.65
2022-09-26T02:34:04.701Z,1.48
2022-09-26T02:36:34.001Z,1.52
2022-09-26T02:39:03.761Z,1.53
2022-09-26T02:42:01.051Z,1.83
2022-09-26T02:44:37.499Z,1.77
2022-09-26T02:47:08.053Z,1.50
2022-09-26T02:49:40.112Z,1.67
2022-09-26T02:52:34.744Z,1.42
2022-09-26T02:55:05.350Z,1.50
2022-09-26T02:57:41.855Z,1.92
2022-09-26T03:00:14.205Z,1.50
2022-09-26T03:02:51.054Z,1.67
2022-09-26T03:05:22.761Z,1.30
2022-09-26T03:08:16.587Z,1.50
2022-09-26T03:10:45.437Z,1.15
2022-09-26T03:13:16.665Z,1.50
2022-09-26T03:15:48.446Z,1.50
2022-09-26T03:18:20.591Z,1.33
2022-09-26T03:23:16.188Z,1.35
2022-09-26T03:25:45.238Z,1.02
2022-09-26T03:28:17.790Z,1.38
2022-09-26T03:30:45.749Z,1.80
2022-09-26T03:33:38.404Z,1.50
2022-09-26T03:36:07.791Z,1.83
2022-09-26T03:38:35.934Z,1.20
2022-09-26T03:41:24.623Z,1.27
2022-09-26T03:44:09.681Z,1.45
2022-09-26T03:46:57.737Z,1.70
2022-09-26T03:49:26.039Z,1.48
2022-09-26T03:51:54.629Z,1.58
2022-09-26T03:54:22.755Z,1.38
2022-09-26T03:56:50.741Z,1.30
2022-09-26T03:59:18.658Z,1.52
2022-09-26T04:01:48.862Z,1.35
2022-09-26T04:04:17.530Z,1.20
2022-09-26T04:06:46.025Z,1.50
2022-09-26T04:09:17.840Z,1.10
2022-09-26T04:11:53.616Z,1.30
2022-09-26T04:14:22.340Z,1.40
2022-09-26T04:16:56.125Z,1.23
2022-09-26T04:19:30.069Z,1.27
2022-09-26T04:21:59.705Z,1.52
2022-09-26T04:24:30.242Z,1.40
2022-09-26T04:26:58.307Z,1.20
2022-09-26T04:29:27.621Z,1.48
2022-09-26T04:32:19.811Z,1.30
2022-09-26T04:35:07.641Z,1.33
2022-09-26T04:37:37.267Z,1.50
2022-09-26T04:40:05.871Z,1.08
2022-09-26T04:42:37.217Z,1.20
2022-09-26T04:45:06.776Z,1.58
2022-09-26T04:47:35.005Z,1.90
2022-09-26T04:50:29.249Z,1.35
2022-09-26T04:53:07.065Z,1.10
2022-09-26T04:55:43.270Z,1.67
2022-09-26T05:00:49.893Z,1.25
2022-09-26T05:03:29.577Z,1.00
2022-09-26T05:05:57.828Z,1.15
2022-09-26T05:08:26.407Z,1.00
2022-09-26T05:10:56.414Z,1.27
2022-09-26T05:13:25.127Z,1.30
2022-09-26T05:15:56.066Z,1.25
2022-09-26T05:18:26.230Z,1.30
2022-09-26T05:20:54.494Z,1.60
2022-09-26T05:23:44.973Z,1.50
2022-09-26T05:28:57.085Z,1.10
2022-09-26T05:31:30.353Z,1.08
2022-09-26T05:33:58.402Z,1.30
2022-09-26T05:36:27.084Z,1.70
2022-09-26T05:38:55.217Z,1.42
2022-09-26T05:41:23.098Z,1.23
2022-09-26T05:43:51.775Z,1.15
2022-09-26T05:46:19.924Z,1.58
2022-09-26T05:48:51.445Z,2.20
2022-09-26T05:51:22.536Z,1.50
2022-09-26T05:53:50.557Z,1.10
2022-09-26T05:56:21.564Z,1.48
2022-09-26T05:59:12.321Z,1.40
2022-09-26T06:01:59.126Z,1.50
2022-09-26T06:04:43.363Z,1.00
2022-09-26T06:07:27.803Z,1.10
2022-09-26T06:09:55.736Z,0.95
2022-09-26T06:12:35.987Z,1.10
2022-09-26T06:15:04.304Z,0.93
2022-09-26T06:17:32.658Z,1.00
2022-09-26T06:20:00.482Z,0.80
2022-09-26T06:22:29.115Z,1.00
2022-09-26T06:24:57.215Z,1.20
2022-09-26T06:27:25.628Z,0.95
2022-09-26T06:29:53.412Z,1.20
2022-09-26T06:32:21.233Z,1.42
2022-09-26T06:35:01.968Z,1.10
2022-09-26T06:37:42.586Z,1.10
2022-09-26T06:40:11.728Z,1.20
2022-09-26T06:42:40.327Z,0.90
2022-09-26T06:45:40.702Z,0.90
2022-09-26T06:48:13.471Z,1.10
2022-09-26T06:51:00.386Z,1.20
2022-09-26T06:53:31.052Z,1.40
2022-09-26T06:55:59.997Z,1.13
2022-09-26T06:58:28.116Z,1.23
2022-09-26T07:01:02.932Z,1.27
2022-09-26T07:03:45.620Z,1.20
2022-09-26T07:06:43.612Z,1.00
2022-09-26T07:09:13.130Z,1.50
2022-09-26T07:12:16.940Z,1.30
2022-09-26T07:14:47.907Z,1.10
2022-09-26T07:17:26.108Z,0.98
2022-09-26T07:20:16.916Z,1.13
2022-09-26T07:23:12.199Z,1.40
2022-09-26T07:28:12.651Z,1.13
2022-09-26T07:30:47.237Z,1.40
2022-09-26T07:33:33.511Z,1.27
2022-09-26T07:36:06.852Z,1.50
2022-09-26T07:38:34.501Z,1.50
2022-09-26T07:41:04.353Z,1.40
2022-09-26T07:44:21.729Z,1.30
2022-09-26T07:46:40.554Z,1.40
2022-09-26T07:49:43.739Z,1.30
2022-09-26T07:52:31.689Z,1.00
2022-09-26T07:55:27.473Z,1.95
2022-09-26T07:58:01.141Z,1.50
2022-09-26T08:00:49.077Z,1.33
2022-09-26T08:03:29.887Z,1.42
2022-09-26T08:06:01.734Z,1.20
2022-09-26T08:08:30.731Z,1.65
2022-09-26T08:11:04.139Z,1.10
2022-09-26T08:13:50.842Z,1.95
2022-09-26T08:16:29.771Z,1.20
2022-09-26T08:19:01.910Z,1.58
2022-09-26T08:21:30.349Z,1.75
2022-09-26T08:23:59.714Z,1.33
2022-09-26T08:27:06.572Z,1.63
2022-09-26T08:29:39.160Z,1.60
2022-09-26T08:32:07.033Z,1.48
2022-09-26T08:34:36.660Z,1.33
2022-09-26T08:37:42.939Z,1.38
2022-09-26T08:40:42.252Z,1.17
2022-09-26T08:43:40.140Z,1.55
2022-09-26T08:46:44.027Z,1.58
2022-09-26T08:50:10.257Z,1.17
2022-09-26T08:52:49.827Z,1.23
2022-09-26T08:55:28.566Z,1.05
2022-09-26T08:58:18.424Z,1.08
2022-09-26T09:00:48.370Z,1.30
2022-09-26T09:03:28.348Z,1.40
2022-09-26T09:06:06.906Z,1.38
2022-09-26T09:08:41.343Z,1.20
2022-09-26T09:11:55.523Z,1.45
2022-09-26T09:15:02.293Z,1.30
2022-09-26T09:18:13.644Z,0.85
2022-09-26T09:21:22.999Z,1.52
2022-09-26T09:24:32.978Z,1.27
2022-09-26T09:30:42.280Z,1.23
2022-09-26T09:33:33.388Z,1.70
2022-09-26T09:36:36.976Z,1.42
2022-09-26T09:39:37.280Z,1.48
2022-09-26T09:42:17.990Z,1.05
2022-09-26T09:47:25.909Z,1.30
2022-09-26T09:49:54.592Z,1.17
2022-09-26T09:52:38.542Z,1.10
2022-09-26T09:55:40.620Z,1.30
2022-09-26T09:58:14.277Z,1.08
2022-09-26T10:00:51.300Z,1.10
2022-09-26T10:03:40.403Z,1.15
2022-09-26T10:06:45.692Z,0.80
2022-09-26T10:09:35.727Z,1.00
2022-09-26T10:12:28.971Z,1.13
2022-09-26T10:15:20.614Z,0.70
2022-09-26T10:18:27.455Z,0.90
2022-09-26T10:21:19.244Z,0.90
2022-09-26T10:23:49.503Z,1.02
2022-09-26T10:26:39.582Z,1.00
2022-09-26T10:29:24.859Z,0.90
2022-09-26T10:32:00.543Z,0.70
2022-09-26T10:34:35.317Z,0.80
2022-09-26T10:37:29.433Z,0.73
2022-09-26T10:40:45.539Z,0.85
2022-09-26T10:43:23.634Z,0.80
2022-09-26T10:49:02.205Z,0.88
2022-09-26T10:52:23.842Z,0.50
2022-09-26T10:55:04.532Z,0.60
2022-09-26T10:57:54.949Z,0.55
2022-09-26T11:00:41.513Z,0.80
2022-09-26T11:03:34.739Z,0.60
2022-09-26T11:06:45.344Z,0.52
2022-09-26T11:09:23.475Z,0.77
2022-09-26T11:12:30.998Z,0.68
2022-09-26T11:15:14.998Z,0.73
2022-09-26T11:17:48.493Z,0.70
2022-09-26T11:20:45.899Z,0.90
2022-09-26T11:23:36.685Z,0.55
2022-09-26T11:29:06.300Z,0.57
2022-09-26T11:31:44.298Z,1.00
2022-09-26T11:34:31.481Z,0.50
2022-09-26T11:37:35.226Z,0.70
2022-09-26T11:41:09.588Z,0.68
2022-09-26T11:44:21.775Z,0.55
2022-09-26T11:47:37.127Z,0.60
2022-09-26T11:53:40.739Z,1.10
2022-09-26T11:56:35.575Z,0.70
2022-09-26T11:59:31.717Z,0.73
2022-09-26T12:02:42.509Z,0.70
2022-09-26T12:05:54.905Z,0.85
2022-09-26T12:08:49.557Z,1.00
2022-09-26T12:11:34.284Z,0.80
2022-09-26T12:14:35.325Z,0.80
2022-09-26T12:17:20.414Z,0.93
2022-09-26T12:20:15.007Z,0.82
2022-09-26T12:23:22.684Z,0.77
2022-09-26T12:26:11.270Z,0.75
2022-09-26T12:29:10.418Z,0.90
2022-09-26T12:32:09.775Z,1.02
2022-09-26T12:35:21.775Z,0.90
2022-09-26T12:38:20.674Z,1.00
2022-09-26T12:41:05.085Z,0.82
2022-09-26T12:44:28.706Z,0.88
2022-09-26T12:47:37.217Z,1.20
2022-09-26T12:50:52.475Z,0.70
2022-09-26T12:53:44.573Z,0.88
2022-09-26T12:56:45.624Z,0.90
2022-09-26T13:00:09.519Z,1.00
2022-09-26T13:03:33.302Z,0.93
2022-09-26T13:07:20.275Z,0.98
2022-09-26T13:10:06.608Z,1.00
2022-09-26T13:13:24.895Z,0.90
2022-09-26T13:16:34.430Z,0.80
2022-09-26T13:19:33.279Z,1.00
2022-09-26T13:22:27.654Z,0.80
2022-09-26T13:25:11.613Z,0.80
2022-09-26T13:27:47.204Z,0.60
2022-09-26T13:30:24.432Z,0.98
2022-09-26T13:33:41.819Z,0.80
2022-09-26T13:36:10.511Z,1.02
2022-09-26T13:38:53.107Z,0.80
2022-09-26T13:42:18.075Z,2.17
2022-09-26T13:45:16.942Z,0.73
2022-09-26T13:48:13.958Z,0.80
2022-09-26T13:50:56.200Z,1.02
2022-09-26T13:53:35.036Z,0.60
2022-09-26T13:56:41.695Z,1.45
2022-09-26T13:59:11.962Z,0.90
2022-09-26T14:02:20.016Z,0.95
2022-09-26T14:04:50.322Z,0.80
2022-09-26T14:07:40.894Z,1.05
2022-09-26T14:10:13.565Z,0.90
2022-09-26T14:13:28.523Z,0.88
2022-09-26T14:16:00.419Z,1.05
2022-09-26T14:18:56.341Z,1.05
2022-09-26T14:21:57.992Z,0.88
2022-09-26T14:27:11.943Z,1.13
2022-09-26T14:29:39.368Z,0.80
2022-09-26T14:32:12.490Z,0.95
2022-09-26T14:35:27.122Z,0.90
2022-09-26T14:38:09.820Z,1.00
2022-09-26T14:40:38.214Z,0.75
2022-09-26T14:43:19.079Z,0.80
2022-09-26T14:46:06.418Z,1.00
2022-09-26T14:48:42.139Z,1.27
2022-09-26T14:51:12.792Z,0.90
2022-09-26T14:53:49.244Z,1.40
2022-09-26T14:56:26.347Z,1.10
2022-09-26T14:59:15.491Z,0.98
2022-09-26T15:01:46.791Z,1.02
2022-09-26T15:07:00.511Z,0.80
2022-09-26T15:10:14.381Z,0.70
2022-09-26T15:13:09.235Z,0.88
2022-09-26T15:16:11.187Z,0.90
2022-09-26T15:18:48.928Z,0.80
2022-09-26T15:21:38.000Z,0.80
2022-09-26T15:24:34.315Z,0.88
2022-09-26T15:27:15.308Z,1.63
2022-09-26T15:29:58.230Z,1.00
2022-09-26T15:32:29.596Z,1.00
2022-09-26T15:37:32.954Z,0.68
2022-09-26T15:40:23.812Z,0.80
2022-09-26T15:43:12.395Z,0.90
2022-09-26T15:46:02.550Z,1.02
2022-09-26T15:48:33.705Z,0.85
2022-09-26T15:51:25.869Z,0.82
2022-09-26T15:54:03.257Z,0.70
2022-09-26T15:56:44.720Z,1.05
2022-09-26T16:01:48.943Z,0.85
2022-09-26T16:04:29.933Z,0.88
2022-09-26T16:07:03.534Z,0.80
2022-09-26T16:09:33.803Z,0.98
2022-09-26T16:12:19.234Z,1.70
2022-09-26T16:15:00.098Z,0.70
2022-09-26T16:17:56.310Z,0.70
2022-09-26T16:20:27.532Z,0.70
2022-09-26T16:23:05.117Z,0.70
2022-09-26T16:25:53.621Z,0.88
2022-09-26T16:28:44.843Z,0.60
2022-09-26T16:31:37.148Z,0.60
2022-09-26T16:34:26.151Z,0.70
2022-09-26T16:36:54.310Z,0.95
2022-09-26T16:39:26.954Z,0.68
2022-09-26T16:42:03.089Z,0.80
2022-09-26T16:44:51.160Z,0.80
2022-09-26T16:47:45.632Z,0.63
2022-09-26T16:50:33.600Z,0.90
2022-09-26T16:53:06.987Z,0.98
2022-09-26T16:55:37.638Z,0.70
2022-09-26T16:58:06.293Z,0.90
2022-09-26T17:00:53.938Z,0.65
2022-09-26T17:03:28.398Z,0.60
2022-09-26T17:05:58.068Z,0.80
2022-09-26T17:08:27.241Z,0.50
2022-09-26T17:10:57.542Z,0.70
2022-09-26T17:13:28.271Z,0.70
2022-09-26T17:15:57.568Z,0.60
2022-09-26T17:18:33.371Z,0.75
2022-09-26T17:21:01.846Z,0.73
2022-09-26T17:23:41.588Z,0.80
2022-09-26T17:26:20.184Z,0.60
2022-09-26T17:28:48.179Z,0.50
2022-09-26T17:31:21.487Z,0.50
2022-09-26T17:33:54.069Z,0.60
2022-09-26T17:36:27.431Z,0.70
2022-09-26T17:38:57.898Z,0.40
2022-09-26T17:41:28.041Z,0.65
2022-09-26T17:44:00.617Z,0.50
2022-09-26T17:46:28.449Z,0.65
2022-09-26T17:48:56.514Z,0.43
2022-09-26T17:51:24.497Z,0.90
2022-09-26T17:53:52.719Z,0.77
2022-09-26T17:56:21.079Z,0.63
2022-09-26T17:58:52.133Z,0.43
2022-09-26T18:01:27.334Z,0.50
2022-09-26T18:04:01.435Z,0.40
2022-09-26T18:06:33.246Z,0.60
2022-09-26T18:09:07.728Z,0.50
2022-09-26T18:11:38.459Z,0.50
2022-09-26T18:14:08.261Z,0.70
2022-09-26T18:16:35.826Z,0.45
2022-09-26T18:19:07.529Z,0.95
2022-09-26T18:21:35.741Z,0.65
2022-09-26T18:24:07.150Z,0.68
2022-09-26T18:29:18.009Z,0.45
2022-09-26T18:31:46.694Z,0.45
2022-09-26T18:34:19.032Z,0.65
2022-09-26T18:36:50.411Z,0.60
2022-09-26T18:39:17.904Z,0.45
2022-09-26T18:41:46.132Z,0.73
2022-09-26T18:44:17.746Z,0.38
2022-09-26T18:46:47.328Z,0.63
2022-09-26T18:49:15.790Z,0.60
2022-09-26T18:51:43.864Z,0.80
2022-09-26T18:54:14.989Z,0.60
2022-09-26T18:57:01.906Z,0.63
2022-09-26T18:59:32.324Z,0.50
2022-09-26T19:02:02.111Z,0.70
2022-09-26T19:04:33.594Z,0.75
2022-09-26T19:07:05.868Z,0.70
2022-09-26T19:09:35.264Z,0.60
2022-09-26T19:12:04.046Z,1.17
2022-09-26T19:14:32.415Z,0.65
2022-09-26T19:17:00.522Z,0.70
2022-09-26T19:19:32.649Z,0.57
2022-09-26T19:22:10.751Z,0.77
2022-09-26T19:24:41.375Z,0.75
2022-09-26T19:27:23.925Z,0.60
2022-09-26T19:30:21.419Z,0.75
2022-09-26T19:32:54.133Z,0.80
2022-09-26T19:35:31.096Z,0.80
2022-09-26T19:38:00.486Z,0.90
2022-09-26T19:40:29.213Z,1.00
2022-09-26T19:42:57.490Z,1.05
2022-09-26T19:45:26.304Z,0.63
2022-09-26T19:47:56.007Z,0.80
2022-09-26T19:50:27.234Z,0.88
2022-09-26T19:52:58.672Z,0.90
2022-09-26T19:55:29.663Z,0.70
2022-09-26T19:58:07.515Z,0.80
2022-09-26T20:00:41.621Z,0.80
2022-09-26T20:03:40.118Z,0.90
2022-09-26T20:06:23.521Z,0.70
2022-09-26T20:08:57.657Z,0.85
2022-09-26T20:11:28.307Z,0.90
2022-09-26T20:14:14.831Z,0.90
2022-09-26T20:16:43.363Z,0.90
2022-09-26T20:19:21.464Z,0.70
2022-09-26T20:21:48.879Z,0.80
2022-09-26T20:24:19.129Z,0.88
2022-09-26T20:26:48.174Z,0.82
2022-09-26T20:29:16.792Z,0.90
2022-09-26T20:31:44.665Z,0.88
2022-09-26T20:34:12.323Z,0.80
2022-09-26T20:36:49.099Z,1.00
2022-09-26T20:39:24.088Z,0.85
2022-09-26T20:41:52.725Z,0.70
2022-09-26T20:44:33.698Z,0.68
2022-09-26T20:47:04.847Z,0.82
2022-09-26T20:49:41.689Z,0.93
2022-09-26T20:52:25.650Z,0.90
2022-09-26T20:54:54.774Z,1.02
2022-09-26T20:57:24.024Z,0.90
2022-09-26T20:59:52.274Z,1.02
2022-09-26T21:02:32.546Z,1.10
2022-09-26T21:05:03.533Z,0.88
2022-09-26T21:07:32.543Z,1.00
2022-09-26T21:10:00.258Z,0.68
2022-09-26T21:12:30.434Z,0.90
2022-09-26T21:14:57.818Z,0.70
2022-09-26T21:17:30.622Z,0.80
2022-09-26T21:19:58.124Z,0.80
2022-09-26T21:22:44.600Z,0.77
2022-09-26T21:25:21.821Z,0.68
2022-09-26T21:27:56.220Z,0.70
2022-09-26T21:30:23.795Z,0.70
2022-09-26T21:32:56.462Z,0.63
2022-09-26T21:35:29.370Z,0.65
2022-09-26T21:37:59.183Z,0.70
2022-09-26T21:40:30.020Z,0.57
2022-09-26T21:43:05.681Z,0.60
2022-09-26T21:45:34.081Z,0.80
2022-09-26T21:48:01.873Z,0.70
2022-09-26T21:50:33.499Z,0.60
2022-09-26T21:53:08.628Z,0.60
2022-09-26T21:55:42.942Z,0.80
2022-09-26T21:58:17.009Z,0.90
2022-09-26T22:00:44.625Z,0.43
2022-09-26T22:03:12.241Z,0.60
2022-09-26T22:05:40.096Z,0.80
2022-09-26T22:08:07.504Z,0.50
2022-09-26T22:10:37.105Z,0.82
2022-09-26T22:13:05.242Z,0.50
2022-09-26T22:15:32.607Z,0.73
2022-09-26T22:18:00.027Z,0.65
2022-09-26T22:20:27.480Z,0.63
2022-09-26T22:22:55.755Z,0.70
2022-09-26T22:25:23.153Z,0.55
2022-09-26T22:27:52.211Z,0.57
2022-09-26T22:30:19.715Z,0.70
2022-09-26T22:32:47.235Z,0.50
2022-09-26T22:35:14.539Z,0.45
2022-09-26T22:37:41.868Z,0.45
2022-09-26T22:40:09.749Z,0.40
2022-09-26T22:42:37.537Z,0.65
2022-09-26T22:45:05.437Z,0.70
2022-09-26T22:47:32.784Z,0.50
2022-09-26T22:50:00.212Z,0.82
2022-09-26T22:52:27.746Z,0.60
2022-09-26T22:54:55.511Z,0.50
2022-09-26T22:57:23.395Z,0.50
2022-09-26T22:59:50.804Z,0.40
2022-09-26T23:02:18.063Z,0.75
2022-09-26T23:04:48.427Z,0.77
2022-09-26T23:07:19.874Z,0.35
2022-09-26T23:09:47.455Z,0.60
2022-09-26T23:12:15.009Z,0.50
2022-09-26T23:14:42.350Z,0.52
2022-09-26T23:17:10.180Z,0.50
2022-09-26T23:19:38.276Z,0.40
2022-09-26T23:22:06.011Z,0.50
2022-09-26T23:24:33.498Z,0.50
2022-09-26T23:27:00.963Z,0.40
2022-09-26T23:29:28.434Z,0.40
2022-09-26T23:31:55.845Z,0.30
2022-09-26T23:34:23.196Z,0.32
2022-09-26T23:36:50.753Z,0.57
2022-09-26T23:39:18.858Z,0.50
2022-09-26T23:41:46.205Z,0.50
2022-09-26T23:44:13.913Z,0.43
2022-09-26T23:46:41.485Z,0.32
2022-09-26T23:49:09.091Z,0.40
2022-09-26T23:51:36.783Z,0.40
2022-09-26T23:54:04.362Z,0.45
2022-09-26T23:56:31.653Z,0.40
2022-09-26T23:58:59.061Z,0.40
